Time;durP1;ratioP1;P1;durP2;ratioP2;P2;SDS_P1;SDS_P2;PMS_P1;PMS_P2;Temp;Humidity;BMP_temperature;BMP_pressure;BME280_temperature;BME280_humidity;BME280_pressure;Samples;Min_cycle;Max_cycle;Signal;HPM_P1;HPM_P2
2023/08/02 00:03:59;;;;;;;4.30;3.90;;;;;;;17.84;79.26;99248.27;222512;1233;59792;-73
2023/08/02 00:09:05;;;;;;;6.20;5.00;;;;;;;17.84;79.48;99248.77;222240;1232;71380;-73
2023/08/02 00:13:57;;;;;;;5.40;4.90;;;;;;;17.82;79.37;99241.14;222630;1230;59786;-73
2023/08/02 00:18:48;;;;;;;5.20;4.70;;;;;;;17.81;79.60;99239.23;222338;1232;59767;-74
2023/08/02 00:23:40;;;;;;;4.80;4.40;;;;;;;17.83;79.84;99243.23;222444;1234;61540;-74
2023/08/02 00:28:32;;;;;;;4.80;4.30;;;;;;;17.81;79.77;99240.50;222182;1232;59642;-73
2023/08/02 00:33:24;;;;;;;5.40;4.80;;;;;;;17.80;79.91;99238.42;222199;1232;59626;-73
2023/08/02 00:38:16;;;;;;;6.20;5.00;;;;;;;17.78;80.04;99238.48;222428;1232;65685;-73
2023/08/02 00:43:08;;;;;;;8.60;5.10;;;;;;;17.77;80.04;99244.67;222453;1232;59725;-74
2023/08/02 00:48:00;;;;;;;6.00;5.40;;;;;;;17.74;80.03;99246.70;222131;1234;59623;-73
2023/08/02 00:52:53;;;;;;;5.30;4.80;;;;;;;17.70;80.22;99248.61;222447;1232;59636;-73
2023/08/02 00:57:45;;;;;;;5.50;5.00;;;;;;;17.68;80.35;99248.67;222424;1232;70962;-73
2023/08/02 01:02:59;;;;;;;5.90;4.70;;;;;;;17.66;80.50;99243.98;222471;1232;59690;-74
2023/08/02 01:08:03;;;;;;;5.30;4.70;;;;;;;17.63;80.55;99243.76;222251;1234;60257;-73
2023/08/02 01:13:03;;;;;;;5.80;5.20;;;;;;;17.60;80.72;99250.01;222157;1232;68456;-74
2023/08/02 01:18:47;;;;;;;5.90;5.40;;;;;;;17.58;80.86;99254.81;222305;1233;59591;-73
2023/08/02 01:23:56;;;;;;;5.50;5.00;;;;;;;17.54;80.91;99238.84;222467;1232;73138;-73
2023/08/02 01:29:22;;;;;;;7.40;5.50;;;;;;;17.51;81.04;99254.35;222148;1234;74372;-73
2023/08/02 01:34:27;;;;;;;7.70;5.90;;;;;;;17.49;81.16;99265.61;222409;1230;59755;-74
2023/08/02 01:39:29;;;;;;;6.00;5.20;;;;;;;17.48;81.28;99256.72;222264;1231;67018;-73
2023/08/02 01:44:26;;;;;;;5.30;4.80;;;;;;;17.49;81.45;99249.86;222347;1233;59692;-73
2023/08/02 01:49:32;;;;;;;6.80;6.10;;;;;;;17.48;81.38;99253.20;222386;1231;71708;-73
2023/08/02 01:54:40;;;;;;;6.40;4.60;;;;;;;17.46;81.44;99257.30;222180;1232;72158;-73
2023/08/02 01:59:37;;;;;;;5.70;5.20;;;;;;;17.44;81.57;99262.61;222065;1234;59696;-74
2023/08/02 02:04:32;;;;;;;5.30;4.70;;;;;;;17.43;81.61;99255.67;222247;1232;66089;-73
2023/08/02 02:09:32;;;;;;;5.90;5.30;;;;;;;17.39;81.63;99252.83;222440;1232;60441;-73
2023/08/02 02:14:31;;;;;;;6.60;5.40;;;;;;;17.37;81.77;99254.64;222376;1233;73945;-74
2023/08/02 02:19:25;;;;;;;5.70;5.10;;;;;;;17.35;81.79;99259.79;222341;1233;73398;-73
2023/08/02 02:24:17;;;;;;;6.40;5.70;;;;;;;17.33;81.87;99264.77;222427;1232;60557;-74
2023/08/02 02:29:14;;;;;;;5.40;4.80;;;;;;;17.30;81.82;99268.54;222168;1232;61213;-73
2023/08/02 02:34:12;;;;;;;5.80;5.20;;;;;;;17.27;81.98;99262.70;222377;1230;60583;-73
2023/08/02 02:39:08;;;;;;;6.50;5.20;;;;;;;17.24;81.99;99257.70;222128;1232;71938;-73
2023/08/02 02:44:03;;;;;;;5.60;5.00;;;;;;;17.21;81.99;99254.49;222094;1232;71568;-74
2023/08/02 02:48:58;;;;;;;9.20;6.30;;;;;;;17.17;81.86;99264.23;222416;1231;60509;-74
2023/08/02 02:53:50;;;;;;;6.50;5.80;;;;;;;17.11;81.81;99267.94;222369;1231;68154;-74
2023/08/02 02:58:42;;;;;;;8.00;5.80;;;;;;;17.05;81.69;99274.42;222338;1232;60867;-73
2023/08/02 03:03:37;;;;;;;8.70;5.30;;;;;;;17.01;81.95;99273.36;222169;1234;73812;-73
2023/08/02 03:08:32;;;;;;;6.30;4.80;;;;;;;16.95;81.89;99270.38;222422;1231;72586;-74
2023/08/02 03:13:24;;;;;;;5.50;4.90;;;;;;;16.86;81.68;99268.04;222354;1232;60963;-73
2023/08/02 03:18:19;;;;;;;5.70;5.20;;;;;;;16.79;81.64;99274.55;222292;1232;60416;-73
2023/08/02 03:23:11;;;;;;;8.80;5.10;;;;;;;16.74;81.99;99273.27;222251;1232;60432;-73
2023/08/02 03:28:05;;;;;;;6.40;5.80;;;;;;;16.72;82.03;99279.14;222254;1230;73603;-73
2023/08/02 03:33:00;;;;;;;5.90;5.30;;;;;;;16.65;81.64;99287.58;222376;1231;60896;-73
2023/08/02 03:37:56;;;;;;;6.50;5.20;;;;;;;16.57;81.71;99287.46;222322;1234;60409;-73
2023/08/02 03:42:48;;;;;;;6.50;5.80;;;;;;;16.52;81.75;99284.98;222155;1232;66686;-73
2023/08/02 03:47:40;;;;;;;4.90;4.50;;;;;;;16.48;81.66;99290.35;222144;1232;60301;-73
2023/08/02 03:52:34;;;;;;;5.50;4.60;;;;;;;16.42;81.36;99286.88;222143;1231;74216;-73
2023/08/02 03:57:35;;;;;;;7.60;5.10;;;;;;;16.35;81.03;99289.68;222341;1230;71605;-74
2023/08/02 04:02:30;;;;;;;4.70;4.30;;;;;;;16.30;81.35;99294.04;222151;1232;60500;-72
2023/08/02 04:07:23;;;;;;;5.00;4.50;;;;;;;16.27;81.33;99294.45;222488;1230;60380;-74
2023/08/02 04:12:24;;;;;;;5.60;5.10;;;;;;;16.26;81.63;99297.46;222173;1232;60445;-73
2023/08/02 04:17:19;;;;;;;6.10;5.00;;;;;;;16.30;81.60;99302.24;222109;1232;72981;-73
2023/08/02 04:22:13;;;;;;;5.80;5.20;;;;;;;16.32;81.47;99309.54;221946;1231;72680;-74
2023/08/02 04:27:07;;;;;;;6.40;5.60;;;;;;;16.36;81.84;99313.80;221980;1234;60448;-73
2023/08/02 04:32:04;;;;;;;6.30;5.40;;;;;;;16.41;81.95;99315.04;222125;1232;66924;-73
2023/08/02 04:36:56;;;;;;;6.20;5.60;;;;;;;16.46;82.18;99322.26;221948;1234;61081;-74
2023/08/02 04:41:55;;;;;;;7.70;5.80;;;;;;;16.50;82.26;99330.16;222139;1234;72168;-73
2023/08/02 04:46:51;;;;;;;10.30;5.90;;;;;;;16.52;82.24;99333.08;222178;1232;73437;-73
2023/08/02 04:51:44;;;;;;;7.70;6.00;;;;;;;16.60;82.53;99337.22;222136;1230;60444;-73
2023/08/02 04:56:39;;;;;;;6.40;5.80;;;;;;;16.69;82.56;99336.05;221727;1231;202396;-73
2023/08/02 05:01:32;;;;;;;6.50;5.90;;;;;;;16.76;82.56;99338.83;222100;1230;60538;-74
2023/08/02 05:06:24;;;;;;;7.40;6.20;;;;;;;16.81;82.55;99339.04;221993;1235;60485;-74
2023/08/02 05:11:16;;;;;;;7.80;5.60;;;;;;;16.87;82.56;99340.98;222221;1234;60924;-73
2023/08/02 05:16:13;;;;;;;5.40;5.00;;;;;;;16.94;82.67;99339.54;222258;1232;60534;-74
2023/08/02 05:21:33;;;;;;;6.10;5.50;;;;;;;17.00;82.43;99339.36;222270;1232;71984;-74
2023/08/02 05:26:24;;;;;;;5.30;4.80;;;;;;;17.05;82.43;99339.73;222227;1232;60413;-74
2023/08/02 05:31:16;;;;;;;5.90;5.30;;;;;;;17.11;82.39;99338.84;222191;1232;60426;-73
2023/08/02 05:36:12;;;;;;;5.60;5.00;;;;;;;17.22;82.43;99340.94;221919;1234;60398;-74
2023/08/02 05:41:05;;;;;;;5.50;4.60;;;;;;;17.42;82.15;99345.39;222079;1231;73852;-74
2023/08/02 05:45:57;;;;;;;4.90;4.40;;;;;;;17.53;81.93;99350.96;222260;1231;60439;-73
2023/08/02 05:51:29;;;;;;;5.30;4.70;;;;;;;17.67;81.48;99349.98;221761;1231;60456;-74
2023/08/02 05:56:24;;;;;;;5.00;4.50;;;;;;;17.77;80.99;99351.23;222226;1231;66930;-74
2023/08/02 06:01:29;;;;;;;5.40;4.60;;;;;;;17.82;81.12;99354.89;222234;1232;60429;-73
2023/08/02 06:06:30;;;;;;;3.90;3.60;;;;;;;17.93;80.89;99360.69;221943;1231;75951;-74
2023/08/02 06:36:13;;;;;;;;;;;;;;;;;;;;;
2023/08/02 06:41:12;;;;;;;3.20;3.00;;;;;;;23.20;69.18;99359.30;218654;1251;72801;-74
2023/08/02 06:46:17;;;;;;;7.00;3.40;;;;;;;24.04;66.83;99358.02;218613;1252;60732;-74
2023/08/02 06:51:35;;;;;;;3.20;2.90;;;;;;;23.23;67.24;99363.48;218863;1248;67455;-74
2023/08/02 06:56:35;;;;;;;3.00;2.80;;;;;;;23.43;67.43;99366.36;218910;1251;60485;-74
2023/08/02 07:02:14;;;;;;;7.30;3.00;;;;;;;23.16;67.20;99368.78;219668;1238;73848;-74
2023/08/02 07:40:25;;;;;;;4.90;3.80;;;;;;;22.26;65.71;99400.65;216523;1257;72133;-73
2023/08/02 08:03:37;;;;;;;2.80;2.40;;;;;;;27.09;56.69;99406.84;220498;1239;74611;-74
2023/08/02 08:15:34;;;;;;;2.90;2.60;;;;;;;24.99;58.33;99415.09;220095;1241;60473;-75
2023/08/02 08:38:26;;;;;;;4.10;2.60;;;;;;;23.35;58.88;99411.23;220057;1243;74707;-75
2023/08/02 08:49:59;;;;;;;2.60;2.20;;;;;;;25.94;54.14;99410.89;220291;1240;65804;-74
2023/08/02 09:08:48;;;;;;;;;;;;;;;;;;;;;
2023/08/02 09:21:12;;;;;;;2.10;1.90;;;;;;;25.62;52.45;99406.77;219856;1243;65375;-74
2023/08/02 09:33:52;;;;;;;2.40;2.20;;;;;;;24.91;52.70;99422.56;220485;1237;77191;-75
2023/08/02 09:39:45;;;;;;;1.90;1.80;;;;;;;24.38;53.12;99417.05;220991;1237;71098;-74
2023/08/02 09:45:04;;;;;;;3.50;2.10;;;;;;;25.01;52.44;99412.47;221951;1234;59805;-73
2023/08/02 09:51:14;;;;;;;2.50;2.20;;;;;;;25.44;51.48;99409.20;222154;1230;66897;-73
2023/08/02 10:03:26;;;;;;;1.90;1.60;;;;;;;30.44;44.80;99400.42;216416;1257;73553;-75
2023/08/02 10:13:52;;;;;;;3.40;1.90;;;;;;;34.72;38.67;99391.41;216210;1260;60462;-73
2023/08/02 10:19:17;;;;;;;1.80;1.60;;;;;;;35.58;37.51;99395.77;216459;1259;68271;-76
2023/08/02 10:25:16;;;;;;;1.60;1.50;;;;;;;35.46;36.30;99387.17;216169;1260;61008;-74
2023/08/02 10:30:42;;;;;;;2.60;1.80;;;;;;;33.51;37.61;99394.03;216972;1254;74716;-74
2023/08/02 10:43:22;;;;;;;1.50;1.30;;;;;;;35.38;34.54;99372.59;218868;1248;60661;-74
2023/08/02 10:49:07;;;;;;;2.90;1.50;;;;;;;36.24;33.41;99371.27;218841;1245;67143;-74
2023/08/02 10:54:25;;;;;;;2.30;1.40;;;;;;;34.79;34.21;99373.10;219379;1250;60488;-74
2023/08/02 10:59:52;;;;;;;2.00;1.30;;;;;;;31.93;35.54;99362.95;219470;1245;74947;-74
2023/08/02 11:05:52;;;;;;;1.80;1.40;;;;;;;30.82;37.44;99356.75;219473;1245;72126;-73
2023/08/02 11:11:48;;;;;;;1.30;1.20;;;;;;;30.24;38.20;99351.70;219355;1245;60828;-74
2023/08/02 11:16:43;;;;;;;3.10;1.30;;;;;;;30.33;38.34;99346.41;220660;1231;66672;-74
2023/08/02 11:34:50;;;;;;;2.20;1.30;;;;;;;32.87;36.30;99324.45;221201;1237;72083;-73
2023/08/02 11:40:09;;;;;;;2.20;1.20;;;;;;;31.75;36.04;99328.64;221174;1235;60486;-74
2023/08/02 11:45:34;;;;;;;1.60;1.10;;;;;;;29.79;37.72;99333.91;221723;1231;67396;-73
2023/08/02 11:50:28;;;;;;;2.60;1.50;;;;;;;28.84;39.26;99335.86;222171;1231;60273;-73
2023/08/02 11:55:26;;;;;;;1.80;1.50;;;;;;;28.26;39.64;99340.95;221876;1231;73673;-73
2023/08/02 12:00:33;;;;;;;1.60;1.50;;;;;;;28.10;39.96;99333.44;222149;1231;71173;-73
2023/08/02 12:06:31;;;;;;;2.30;1.70;;;;;;;27.80;40.74;99328.95;221997;1231;61130;-73
2023/08/02 12:17:26;;;;;;;1.30;1.20;;;;;;;26.76;42.35;99332.98;221996;1231;60826;-73
2023/08/02 12:22:20;;;;;;;1.50;1.30;;;;;;;27.49;42.41;99327.16;222081;1231;73762;-73
2023/08/02 12:40:22;;;;;;;1.80;1.50;;;;;;;27.50;41.23;99326.98;220745;1238;66707;-72
2023/08/02 12:52:42;;;;;;;;;;;;;;;;;;;;;
2023/08/02 12:58:40;;;;;;;2.40;1.40;;;;;;;27.27;40.18;99315.69;220753;1240;71752;-73
2023/08/02 13:03:50;;;;;;;2.20;1.60;;;;;;;26.65;41.14;99316.84;220720;1238;60473;-73
2023/08/02 13:09:08;;;;;;;;;;;;;;;;;;;;;
2023/08/02 13:14:30;;;;;;;2.60;1.50;;;;;;;26.20;41.63;99310.58;222000;1231;60423;-72
2023/08/02 13:44:17;;;;;;;1.80;1.60;;;;;;;27.44;40.17;99290.77;217933;1251;60445;-73
2023/08/02 13:56:41;;;;;;;2.00;1.70;;;;;;;27.40;40.73;99274.59;217915;1251;71188;-72
2023/08/02 14:02:19;;;;;;;;;;;;;;;;;;;;;
2023/08/02 14:13:54;;;;;;;2.70;1.90;;;;;;;27.71;41.46;99261.13;221065;1234;60594;-71
2023/08/02 14:18:49;;;;;;;2.40;2.20;;;;;;;27.87;41.42;99260.80;221265;1237;60507;-71
2023/08/02 14:24:19;;;;;;;2.10;2.00;;;;;;;27.37;40.95;99252.87;221422;1236;70944;-72
2023/08/02 16:11:57;;;;;;;6.10;2.60;;;;;;;24.63;45.11;99219.67;216336;1257;61077;-73
2023/08/02 17:04:27;;;;;;;2.30;1.70;;;;;;;24.45;47.57;99189.77;219185;1245;72868;-73
2023/08/02 23:23:32;;;;;;;3.30;3.00;;;;;;;18.80;67.52;99148.98;215056;1264;60790;-73
2023/08/02 23:34:22;;;;;;;4.70;3.60;;;;;;;18.90;67.27;99148.58;217083;1248;60462;-74
2023/08/02 23:39:26;;;;;;;3.80;3.40;;;;;;;18.91;67.27;99137.65;218894;1251;73704;-73
